createdAt,value
2023-03-07T00:00:32.649Z,87.53
2023-03-07T00:08:52.690Z,79.18
2023-03-07T00:12:54.632Z,84.45
2023-03-07T00:16:56.554Z,85.82
2023-03-07T00:21:00.130Z,75.00
2023-03-07T00:25:02.225Z,86.28
2023-03-07T00:29:04.146Z,95.68
2023-03-07T00:33:06.145Z,91.65
2023-03-07T00:37:08.234Z,95.47
2023-03-07T00:41:13.848Z,77.45
2023-03-07T00:45:15.914Z,80.60
2023-03-07T00:49:18.023Z,73.65
2023-03-07T00:53:20.693Z,72.97
2023-03-07T00:57:22.698Z,74.88
2023-03-07T01:01:25.810Z,70.18
2023-03-07T01:05:28.437Z,62.20
2023-03-07T01:09:30.423Z,65.43
2023-03-07T01:13:33.807Z,57.22
2023-03-07T01:17:35.805Z,54.30
2023-03-07T01:21:40.535Z,59.55
2023-03-07T01:25:43.724Z,57.55
2023-03-07T01:29:46.239Z,56.63
2023-03-07T01:33:50.664Z,58.95
2023-03-07T01:37:54.261Z,78.70
2023-03-07T01:41:56.333Z,121.72
2023-03-07T01:46:17.482Z,88.03
2023-03-07T01:50:22.894Z,79.20
2023-03-07T01:54:26.279Z,61.35
2023-03-07T01:58:29.753Z,69.10
2023-03-07T02:02:32.143Z,78.63
2023-03-07T02:06:37.036Z,66.53
2023-03-07T02:10:41.536Z,72.25
2023-03-07T02:14:45.473Z,71.72
2023-03-07T02:18:49.967Z,83.70
2023-03-07T02:22:52.271Z,74.68
2023-03-07T02:26:57.684Z,138.63
2023-03-07T02:31:06.153Z,77.47
2023-03-07T02:35:17.071Z,59.75
2023-03-07T02:39:24.053Z,65.03
2023-03-07T02:43:28.041Z,60.72
2023-03-07T02:47:30.356Z,65.97
2023-03-07T02:51:33.646Z,66.97
2023-03-07T02:55:35.467Z,61.10
2023-03-07T02:59:41.230Z,71.70
2023-03-07T03:03:44.646Z,63.03
2023-03-07T03:07:49.270Z,66.00
2023-03-07T03:11:51.164Z,75.20
2023-03-07T03:15:57.176Z,71.68
2023-03-07T03:19:59.372Z,76.85
2023-03-07T03:24:06.224Z,70.10
2023-03-07T03:28:08.553Z,77.05
2023-03-07T03:32:11.434Z,71.40
2023-03-07T03:36:16.548Z,70.75
2023-03-07T03:40:21.319Z,76.97
2023-03-07T03:44:23.554Z,78.03
2023-03-07T03:48:26.746Z,71.55
2023-03-07T03:52:30.037Z,75.85
2023-03-07T03:56:32.092Z,73.32
2023-03-07T04:00:34.144Z,77.20
2023-03-07T04:04:36.494Z,73.25
2023-03-07T04:08:40.226Z,77.90
2023-03-07T04:12:43.071Z,77.50
2023-03-07T04:16:46.727Z,77.30
2023-03-07T04:20:51.437Z,73.53
2023-03-07T04:24:53.445Z,83.97
2023-03-07T04:28:55.701Z,82.22
2023-03-07T04:33:10.485Z,83.68
2023-03-07T04:37:12.537Z,155.38
2023-03-07T04:41:18.451Z,260.02
2023-03-07T04:45:21.921Z,287.00
2023-03-07T04:49:23.919Z,348.40
2023-03-07T04:53:26.397Z,310.10
2023-03-07T04:57:28.389Z,393.85
2023-03-07T05:01:30.478Z,489.77
2023-03-07T05:05:35.556Z,322.88
2023-03-07T05:09:38.809Z,333.48
2023-03-07T05:13:41.098Z,374.80
2023-03-07T05:17:43.308Z,354.95
2023-03-07T05:21:47.583Z,317.13
2023-03-07T05:25:50.452Z,439.88
2023-03-07T05:29:52.581Z,385.38
2023-03-07T05:33:54.664Z,410.92
2023-03-07T05:37:56.671Z,278.42
2023-03-07T05:41:58.747Z,552.50
2023-03-07T05:46:01.911Z,284.77
2023-03-07T05:50:05.179Z,302.40
2023-03-07T05:54:07.340Z,258.02
2023-03-07T05:58:10.568Z,317.48
2023-03-07T06:02:12.845Z,277.27
2023-03-07T06:06:15.697Z,300.15
2023-03-07T06:10:18.628Z,304.60
2023-03-07T06:14:21.388Z,223.20
2023-03-07T06:18:24.887Z,242.15
2023-03-07T06:22:27.482Z,190.07
2023-03-07T06:26:29.834Z,197.40
2023-03-07T06:30:31.952Z,186.88
2023-03-07T06:34:34.417Z,187.65
2023-03-07T06:38:36.898Z,164.35
2023-03-07T06:42:39.568Z,202.80
2023-03-07T06:46:44.145Z,185.90
2023-03-07T06:50:49.541Z,166.88
2023-03-07T06:54:51.927Z,168.65
2023-03-07T06:58:53.914Z,171.57
2023-03-07T07:02:56.643Z,206.70
2023-03-07T07:06:59.095Z,179.38
2023-03-07T07:11:02.280Z,184.00
2023-03-07T07:15:06.033Z,187.88
2023-03-07T07:19:09.795Z,168.07
2023-03-07T07:23:11.926Z,149.27
2023-03-07T07:27:13.931Z,145.23
2023-03-07T07:31:16.351Z,140.38
2023-03-07T07:35:18.575Z,130.77
2023-03-07T07:39:21.804Z,144.45
2023-03-07T07:43:24.277Z,134.30
2023-03-07T07:47:50.082Z,137.15
2023-03-07T07:51:52.494Z,143.15
2023-03-07T07:55:54.690Z,133.95
2023-03-07T07:59:56.695Z,133.43
2023-03-07T08:03:58.832Z,124.78
2023-03-07T08:08:00.908Z,117.18
2023-03-07T08:12:03.098Z,121.22
2023-03-07T08:16:13.317Z,121.65
2023-03-07T08:20:15.553Z,123.68
2023-03-07T08:24:17.585Z,118.07
2023-03-07T08:28:19.624Z,115.22
2023-03-07T08:32:21.661Z,99.43
2023-03-07T08:36:23.671Z,105.18
2023-03-07T08:40:26.507Z,99.95
2023-03-07T08:44:28.588Z,97.70
2023-03-07T08:48:31.155Z,100.57
2023-03-07T08:52:33.188Z,89.45
2023-03-07T08:56:36.268Z,82.82
2023-03-07T09:00:40.049Z,91.20
2023-03-07T09:04:43.471Z,94.72
2023-03-07T09:08:46.238Z,81.80
2023-03-07T09:12:49.867Z,78.93
2023-03-07T09:16:51.868Z,87.68
2023-03-07T09:20:53.795Z,86.72
2023-03-07T09:24:55.821Z,82.22
2023-03-07T09:28:57.804Z,87.50
2023-03-07T09:32:59.995Z,83.90
2023-03-07T09:37:02.036Z,85.15
2023-03-07T09:41:22.747Z,87.90
2023-03-07T09:45:30.898Z,76.10
2023-03-07T09:49:46.337Z,78.18
2023-03-07T09:53:52.182Z,82.88
2023-03-07T09:57:56.172Z,81.25
2023-03-07T10:02:12.911Z,81.35
2023-03-07T10:06:25.246Z,72.85
2023-03-07T10:10:38.751Z,70.90
2023-03-07T10:15:04.573Z,78.40
2023-03-07T10:19:23.895Z,76.35
2023-03-07T10:23:34.822Z,71.10
2023-03-07T10:27:38.314Z,73.35
2023-03-07T10:31:45.268Z,75.88
2023-03-07T10:35:55.032Z,73.97
2023-03-07T10:39:57.356Z,77.32
2023-03-07T10:43:59.404Z,74.28
2023-03-07T10:48:08.398Z,83.38
2023-03-07T10:52:35.807Z,77.88
2023-03-07T10:56:37.850Z,80.38
2023-03-07T11:00:40.519Z,80.47
2023-03-07T11:04:45.938Z,79.38
2023-03-07T11:08:47.892Z,82.30
2023-03-07T11:12:49.986Z,83.50
2023-03-07T11:16:56.792Z,77.07
2023-03-07T11:21:00.871Z,85.03
2023-03-07T11:25:08.820Z,88.88
2023-03-07T11:29:13.193Z,83.40
2023-03-07T11:33:25.025Z,82.13
2023-03-07T11:37:38.208Z,78.28
2023-03-07T11:41:44.719Z,83.20
2023-03-07T11:46:01.932Z,75.10
2023-03-07T11:50:24.028Z,75.72
2023-03-07T11:54:38.191Z,65.55
2023-03-07T11:59:01.912Z,71.50
2023-03-07T12:03:20.478Z,73.35
2023-03-07T12:08:00.102Z,75.38
2023-03-07T12:16:47.668Z,59.78
2023-03-07T12:20:55.652Z,61.45
2023-03-07T12:25:04.485Z,58.33
2023-03-07T12:29:16.879Z,55.35
2023-03-07T12:33:38.062Z,48.20
2023-03-07T12:37:45.982Z,48.75
2023-03-07T12:42:17.386Z,44.33
2023-03-07T12:46:37.376Z,46.05
2023-03-07T12:51:00.131Z,44.22
2023-03-07T12:55:36.440Z,48.05
2023-03-07T12:59:42.471Z,43.47
2023-03-07T13:04:22.890Z,40.22
2023-03-07T13:08:25.532Z,43.30
2023-03-07T13:12:33.662Z,39.95
2023-03-07T13:16:44.166Z,42.72
2023-03-07T13:21:07.267Z,36.08
2023-03-07T13:25:26.609Z,40.00
2023-03-07T13:30:06.573Z,45.67
2023-03-07T13:34:46.794Z,38.92
2023-03-07T13:38:49.051Z,40.88
2023-03-07T13:42:52.063Z,35.80
2023-03-07T13:46:55.864Z,41.85
2023-03-07T13:51:00.940Z,38.78
2023-03-07T13:55:14.556Z,36.50
2023-03-07T13:59:24.530Z,41.63
2023-03-07T14:03:51.732Z,40.20
2023-03-07T14:07:54.012Z,35.05
2023-03-07T14:12:14.965Z,36.63
2023-03-07T14:16:55.992Z,32.88
2023-03-07T14:21:03.831Z,33.03
2023-03-07T14:25:16.110Z,36.33
2023-03-07T14:29:22.348Z,30.02
2023-03-07T14:33:33.049Z,33.13
2023-03-07T14:37:35.929Z,29.17
2023-03-07T14:41:52.647Z,27.45
2023-03-07T14:46:26.919Z,28.35
2023-03-07T14:50:31.368Z,27.15
2023-03-07T14:54:37.297Z,31.90
2023-03-07T14:58:58.210Z,31.13
2023-03-07T15:03:10.058Z,28.88
2023-03-07T15:07:21.405Z,28.42
2023-03-07T15:11:33.351Z,29.90
2023-03-07T15:15:42.413Z,28.67
2023-03-07T15:19:50.040Z,28.13
2023-03-07T15:23:55.145Z,31.57
2023-03-07T15:28:16.987Z,33.47
2023-03-07T15:32:45.587Z,35.60
2023-03-07T15:36:47.721Z,30.05
2023-03-07T15:40:50.067Z,29.90
2023-03-07T15:44:57.529Z,33.65
2023-03-07T15:48:59.641Z,34.20
2023-03-07T15:53:10.173Z,38.80
2023-03-07T15:57:18.925Z,26.67
2023-03-07T16:01:24.153Z,28.80
2023-03-07T16:05:29.134Z,27.77
2023-03-07T16:09:31.185Z,27.88
2023-03-07T16:13:40.223Z,35.60
2023-03-07T16:17:42.844Z,29.55
2023-03-07T16:21:45.306Z,30.58
2023-03-07T16:25:47.566Z,30.25
2023-03-07T16:29:50.363Z,31.10
2023-03-07T16:33:52.331Z,33.88
2023-03-07T16:37:55.377Z,33.50
2023-03-07T16:41:57.605Z,30.45
2023-03-07T16:46:05.471Z,38.38
2023-03-07T16:50:18.671Z,45.13
2023-03-07T16:54:20.694Z,40.05
2023-03-07T16:58:27.572Z,40.92
2023-03-07T17:02:29.758Z,37.75
2023-03-07T17:06:39.169Z,37.30
2023-03-07T17:10:44.517Z,30.35
2023-03-07T17:14:46.859Z,31.33
2023-03-07T17:18:48.831Z,38.42
2023-03-07T17:22:52.033Z,36.45
2023-03-07T17:26:55.003Z,35.90
2023-03-07T17:30:57.034Z,40.25
2023-03-07T17:34:59.127Z,36.22
2023-03-07T17:39:01.167Z,38.13
2023-03-07T17:43:04.304Z,39.92
2023-03-07T17:47:06.128Z,45.30
2023-03-07T17:51:11.438Z,38.53
2023-03-07T17:55:15.147Z,46.50
2023-03-07T17:59:17.103Z,46.67
2023-03-07T18:03:19.160Z,35.75
2023-03-07T18:07:21.844Z,37.53
2023-03-07T18:11:23.896Z,43.58
2023-03-07T18:15:27.710Z,40.25
2023-03-07T18:19:30.210Z,37.20
2023-03-07T18:23:34.088Z,38.03
2023-03-07T18:27:36.529Z,38.53
2023-03-07T18:31:39.193Z,34.90
2023-03-07T18:35:43.456Z,34.03
2023-03-07T18:39:45.692Z,34.25
2023-03-07T18:43:48.133Z,34.83
2023-03-07T18:47:50.732Z,35.30
2023-03-07T18:51:57.967Z,50.38
2023-03-07T18:56:05.914Z,37.70
2023-03-07T19:00:11.391Z,44.17
2023-03-07T19:04:13.417Z,39.85
2023-03-07T19:08:16.712Z,35.78
2023-03-07T19:12:18.251Z,31.88
2023-03-07T19:16:23.622Z,41.47
2023-03-07T19:20:27.263Z,33.22
2023-03-07T19:24:29.315Z,33.70
2023-03-07T19:28:31.380Z,31.83
2023-03-07T19:32:33.468Z,46.75
2023-03-07T19:36:36.927Z,27.20
2023-03-07T19:40:38.926Z,30.50
2023-03-07T19:44:40.938Z,31.77
2023-03-07T19:48:46.034Z,33.33
2023-03-07T19:52:48.005Z,30.55
2023-03-07T19:56:49.679Z,28.52
2023-03-07T20:00:51.579Z,33.03
2023-03-07T20:04:55.474Z,28.73
2023-03-07T20:08:58.839Z,29.38
2023-03-07T20:13:00.932Z,28.55
2023-03-07T20:17:02.949Z,31.92
2023-03-07T20:21:07.254Z,30.17
2023-03-07T20:25:09.977Z,29.10
2023-03-07T20:29:12.096Z,33.70
2023-03-07T20:33:14.648Z,29.45
2023-03-07T20:37:16.555Z,28.25
2023-03-07T20:41:20.993Z,31.00
2023-03-07T20:45:23.025Z,28.10
2023-03-07T20:49:24.972Z,27.63
2023-03-07T20:53:26.995Z,30.67
2023-03-07T20:57:28.910Z,34.67
2023-03-07T21:01:33.174Z,41.30
2023-03-07T21:05:35.714Z,44.65
2023-03-07T21:09:37.672Z,40.10
2023-03-07T21:13:41.847Z,55.78
2023-03-07T21:17:43.882Z,43.63
2023-03-07T21:21:45.863Z,35.65
2023-03-07T21:25:47.853Z,34.08
2023-03-07T21:29:49.761Z,33.83
2023-03-07T21:33:54.159Z,32.38
2023-03-07T21:37:56.460Z,33.58
2023-03-07T21:41:58.476Z,31.48
2023-03-07T21:46:09.367Z,31.67
2023-03-07T21:50:11.508Z,29.15
2023-03-07T21:54:13.530Z,26.73
2023-03-07T21:58:15.495Z,30.50
2023-03-07T22:02:17.482Z,24.42
2023-03-07T22:06:20.119Z,35.38
2023-03-07T22:10:22.026Z,28.38
2023-03-07T22:14:24.083Z,27.45
2023-03-07T22:18:26.571Z,80.93
2023-03-07T22:22:28.599Z,32.85
2023-03-07T22:26:31.564Z,53.72
2023-03-07T22:30:33.538Z,37.83
2023-03-07T22:34:35.699Z,32.88
2023-03-07T22:38:37.678Z,25.75
2023-03-07T22:42:39.777Z,15.57
2023-03-07T22:46:41.807Z,15.57
2023-03-07T22:50:43.947Z,10.05
2023-03-07T22:54:45.962Z,6.47
2023-03-07T22:58:48.323Z,9.02
2023-03-07T23:02:50.252Z,5.38
2023-03-07T23:06:52.174Z,5.85
2023-03-07T23:11:03.867Z,7.82
2023-03-07T23:15:06.382Z,7.43
2023-03-07T23:19:08.723Z,6.88
2023-03-07T23:23:10.641Z,8.68
2023-03-07T23:27:12.667Z,10.50
2023-03-07T23:31:20.505Z,7.25
2023-03-07T23:39:25.439Z,7.80
2023-03-07T23:43:27.535Z,5.63
2023-03-07T23:47:29.444Z,5.30
2023-03-07T23:51:31.528Z,7.65
2023-03-07T23:55:33.662Z,10.68
2023-03-07T23:59:35.583Z,13.95
